createdAt,value
2019-02-10T00:00:17.273Z,1002.50
2019-02-10T00:01:17.212Z,1002.55
2019-02-10T00:02:17.211Z,1002.51
2019-02-10T00:03:17.192Z,1002.50
2019-02-10T00:04:17.198Z,1002.51
2019-02-10T00:05:17.202Z,1002.46
2019-02-10T00:06:24.472Z,1002.47
2019-02-10T00:07:18.164Z,1002.44
2019-02-10T00:08:17.142Z,1002.45
2019-02-10T00:09:17.140Z,1002.34
2019-02-10T00:10:17.112Z,1002.32
2019-02-10T00:11:17.122Z,1002.32
2019-02-10T00:12:17.108Z,1002.27
2019-02-10T00:13:17.130Z,1002.27
2019-02-10T00:14:17.169Z,1002.24
2019-02-10T00:15:17.066Z,1002.24
2019-02-10T00:16:17.060Z,1002.23
2019-02-10T00:20:35.882Z,1002.13
2019-02-10T06:44:50.073Z,990.18
2019-02-10T06:45:50.026Z,990.07
2019-02-10T06:46:50.014Z,990.07
2019-02-10T06:47:50.004Z,990.00
2019-02-10T06:48:50.022Z,990.01
2019-02-10T06:49:49.988Z,990.08
2019-02-10T06:50:49.972Z,990.08
2019-02-10T06:51:49.975Z,989.95
2019-02-10T06:52:49.953Z,989.93
2019-02-10T06:53:49.972Z,989.85
2019-02-10T06:54:49.930Z,989.86
2019-02-10T06:55:49.926Z,989.97
2019-02-10T06:56:49.913Z,989.79
2019-02-10T06:57:49.897Z,989.81
2019-02-10T06:58:49.908Z,989.92
2019-02-10T06:59:49.877Z,989.88
2019-02-10T07:00:49.869Z,989.78
2019-02-10T07:01:49.870Z,989.73
2019-02-10T07:02:49.845Z,989.74
2019-02-10T07:04:59.684Z,989.70
2019-02-10T07:05:59.557Z,989.63
2019-02-10T07:06:59.593Z,989.58
2019-02-10T07:07:59.534Z,989.48
2019-02-10T07:08:59.498Z,989.55
2019-02-10T07:09:59.511Z,989.61
2019-02-10T07:10:59.472Z,989.67
2019-02-10T07:11:59.523Z,989.52
2019-02-10T07:12:59.470Z,989.45
2019-02-10T07:13:59.540Z,989.64
2019-02-10T07:14:59.439Z,989.45
2019-02-10T07:15:59.417Z,989.49
2019-02-10T07:16:59.424Z,989.46
2019-02-10T07:17:59.396Z,989.42
2019-02-10T07:18:59.402Z,989.45
2019-02-10T07:19:59.380Z,989.41
2019-02-10T07:20:59.360Z,989.37
2019-02-10T07:21:59.365Z,989.35
2019-02-10T07:22:59.339Z,989.36
2019-02-10T07:23:59.348Z,989.39
2019-02-10T07:24:59.324Z,989.37
2019-02-10T07:25:59.422Z,989.38
2019-02-10T07:26:59.305Z,989.35
2019-02-10T07:27:59.302Z,989.21
2019-02-10T07:28:59.298Z,989.12
2019-02-10T07:29:59.266Z,989.11
2019-02-10T07:30:59.266Z,989.17
2019-02-10T07:31:59.246Z,989.25
2019-02-10T07:32:59.250Z,989.04
2019-02-10T07:33:59.242Z,989.06
2019-02-10T07:34:59.209Z,989.03
2019-02-10T07:35:59.207Z,989.16
2019-02-10T07:36:59.188Z,989.19
2019-02-10T07:37:59.178Z,989.05
2019-02-10T07:38:59.288Z,989.02
2019-02-10T07:39:59.156Z,989.07
2019-02-10T07:40:59.146Z,988.96
2019-02-10T07:41:59.138Z,989.20
2019-02-10T07:42:59.209Z,989.05
2019-02-10T07:43:59.215Z,988.90
2019-02-10T07:44:59.123Z,989.02
2019-02-10T07:45:59.091Z,989.02
2019-02-10T07:46:59.078Z,988.71
2019-02-10T07:47:59.139Z,988.99
2019-02-10T07:48:59.245Z,988.92
2019-02-10T07:49:59.050Z,989.00
2019-02-10T07:50:59.039Z,988.79
2019-02-10T07:51:59.027Z,988.78
2019-02-10T07:52:59.024Z,988.92
2019-02-10T07:53:59.173Z,988.90
2019-02-10T07:54:59.078Z,988.77
2019-02-10T07:55:59.089Z,988.76
2019-02-10T07:56:58.971Z,988.67
2019-02-10T07:57:58.962Z,988.72
2019-02-10T07:58:59.003Z,988.79
2019-02-10T07:59:58.939Z,988.86
2019-02-10T08:00:59.015Z,988.73
2019-02-10T08:01:58.923Z,988.74
2019-02-10T08:02:58.921Z,988.84
2019-02-10T08:03:58.918Z,988.91
2019-02-10T08:04:58.892Z,988.79
2019-02-10T08:05:59.877Z,988.79
2019-02-10T08:06:58.949Z,988.77
2019-02-10T08:07:58.858Z,988.72
2019-02-10T08:08:58.861Z,988.68
2019-02-10T08:09:58.834Z,988.62
2019-02-10T08:10:58.830Z,988.63
2019-02-10T08:11:58.837Z,988.63
2019-02-10T08:12:58.886Z,988.64
2019-02-10T08:13:58.895Z,988.62
2019-02-10T08:14:58.795Z,988.69
2019-02-10T08:15:58.767Z,988.61
2019-02-10T08:16:58.759Z,988.54
2019-02-10T08:17:58.828Z,988.76
2019-02-10T08:18:58.923Z,988.58
2019-02-10T08:19:58.731Z,988.54
2019-02-10T08:20:58.716Z,988.50
2019-02-10T08:21:58.702Z,988.57
2019-02-10T08:22:58.691Z,988.53
2019-02-10T08:23:58.963Z,988.44
2019-02-10T08:24:58.762Z,988.65
2019-02-10T08:25:58.676Z,988.43
2019-02-10T08:26:58.670Z,988.40
2019-02-10T08:27:58.636Z,988.27
2019-02-10T08:28:58.662Z,988.48
2019-02-10T08:29:58.687Z,988.18
2019-02-10T08:30:58.701Z,988.19
2019-02-10T08:31:58.598Z,988.25
2019-02-10T08:32:58.601Z,988.09
2019-02-10T08:33:58.605Z,988.28
2019-02-10T08:34:58.561Z,988.15
2019-02-10T08:35:58.631Z,988.19
2019-02-10T08:36:58.639Z,988.26
2019-02-10T08:37:58.534Z,988.22
2019-02-10T08:38:58.552Z,988.16
2019-02-10T08:39:58.524Z,988.18
2019-02-10T08:40:58.518Z,988.05
2019-02-10T08:41:58.556Z,988.10
2019-02-10T08:42:58.567Z,988.04
2019-02-10T08:43:58.572Z,988.10
2019-02-10T08:44:58.449Z,988.00
2019-02-10T08:45:58.491Z,988.03
2019-02-10T08:46:58.491Z,988.01
2019-02-10T08:47:58.495Z,988.03
2019-02-10T08:48:59.014Z,988.00
2019-02-10T08:49:58.608Z,988.08
2019-02-10T08:50:58.380Z,988.05
2019-02-10T08:51:58.371Z,988.01
2019-02-10T08:52:58.359Z,987.98
2019-02-10T08:53:58.356Z,987.97
2019-02-10T08:54:58.536Z,987.91
2019-02-10T08:55:58.338Z,987.92
2019-02-10T08:56:58.320Z,988.09
2019-02-10T08:57:58.308Z,988.02
2019-02-10T08:58:58.294Z,987.87
2019-02-10T08:59:58.466Z,987.91
2019-02-10T09:00:58.372Z,987.92
2019-02-10T09:01:58.289Z,987.92
2019-02-10T09:02:58.249Z,988.02
2019-02-10T09:03:58.241Z,987.83
2019-02-10T09:04:58.252Z,987.83
2019-02-10T09:05:58.306Z,987.87
2019-02-10T09:06:58.206Z,987.88
2019-02-10T09:07:58.197Z,987.72
2019-02-10T09:09:02.585Z,987.63
2019-02-10T09:09:58.207Z,987.66
2019-02-10T09:10:58.171Z,987.67
2019-02-10T09:11:58.237Z,987.60
2019-02-10T09:12:58.138Z,987.75
2019-02-10T09:13:58.128Z,987.50
2019-02-10T09:14:58.137Z,987.78
2019-02-10T09:15:58.110Z,987.67
2019-02-10T09:16:58.094Z,987.55
2019-02-10T09:17:58.181Z,987.51
2019-02-10T09:18:58.088Z,987.57
2019-02-10T09:19:58.080Z,987.53
2019-02-10T09:20:58.051Z,987.50
2019-02-10T09:21:58.041Z,987.41
2019-02-10T09:22:58.100Z,987.45
2019-02-10T09:23:58.034Z,987.44
2019-02-10T09:24:58.031Z,987.48
2019-02-10T09:25:58.029Z,987.48
2019-02-10T09:26:58.024Z,987.39
2019-02-10T09:27:58.031Z,987.31
2019-02-10T09:28:58.037Z,987.44
2019-02-10T09:29:58.145Z,987.43
2019-02-10T09:30:57.953Z,987.30
2019-02-10T09:31:57.951Z,987.38
2019-02-10T09:32:57.959Z,987.37
2019-02-10T09:33:57.969Z,987.27
2019-02-10T09:34:58.026Z,987.38
2019-02-10T09:35:57.982Z,987.33
2019-02-10T09:36:57.881Z,987.30
2019-02-10T09:37:57.887Z,987.18
2019-02-10T09:38:57.898Z,987.32
2019-02-10T09:39:57.968Z,987.31
2019-02-10T09:40:57.906Z,987.28
2019-02-10T09:41:57.922Z,987.21
2019-02-10T09:42:57.817Z,987.27
2019-02-10T09:43:57.830Z,987.15
2019-02-10T09:44:57.913Z,987.12
2019-02-10T09:45:57.838Z,987.24
2019-02-10T09:46:57.851Z,987.12
2019-02-10T09:47:57.847Z,987.14
2019-02-10T09:48:57.751Z,987.10
2019-02-10T09:49:57.867Z,987.24
2019-02-10T09:50:57.765Z,987.21
2019-02-10T09:51:57.770Z,987.08
2019-02-10T09:52:57.782Z,987.10
2019-02-10T09:53:57.783Z,987.27
2019-02-10T09:54:57.796Z,987.19
2019-02-10T09:55:57.694Z,986.98
2019-02-10T09:56:57.700Z,987.10
2019-02-10T09:57:57.707Z,987.00
2019-02-10T09:58:57.713Z,986.98
2019-02-10T09:59:57.752Z,987.04
2019-02-10T10:00:57.622Z,987.00
2019-02-10T10:01:57.638Z,986.98
2019-02-10T10:02:57.636Z,986.95
2019-02-10T10:03:57.646Z,986.96
2019-02-10T10:04:57.692Z,986.92
2019-02-10T10:05:57.557Z,986.91
2019-02-10T10:06:57.562Z,987.03
2019-02-10T10:07:57.568Z,986.92
2019-02-10T10:08:57.570Z,986.89
2019-02-10T10:09:57.651Z,986.97
2019-02-10T10:10:57.590Z,986.97
2019-02-10T10:11:57.493Z,987.04
2019-02-10T10:12:57.493Z,986.88
2019-02-10T10:13:57.500Z,986.90
2019-02-10T10:14:57.590Z,986.99
2019-02-10T10:15:57.527Z,986.91
2019-02-10T10:16:57.518Z,986.84
2019-02-10T10:17:57.429Z,986.93
2019-02-10T10:18:57.429Z,986.88
2019-02-10T10:19:57.536Z,986.92
2019-02-10T10:20:57.442Z,986.88
2019-02-10T10:21:57.463Z,986.85
2019-02-10T10:22:57.454Z,986.85
2019-02-10T10:23:57.358Z,986.89
2019-02-10T10:24:57.466Z,986.73
2019-02-10T10:25:57.371Z,986.85
2019-02-10T10:26:57.377Z,986.81
2019-02-10T10:27:57.392Z,986.78
2019-02-10T10:28:57.391Z,986.80
2019-02-10T10:29:57.397Z,986.97
2019-02-10T10:30:57.301Z,986.75
2019-02-10T10:31:57.306Z,986.80
2019-02-10T10:32:57.311Z,986.78
2019-02-10T10:33:57.321Z,986.80
2019-02-10T10:34:57.367Z,986.79
2019-02-10T10:35:57.231Z,986.88
2019-02-10T10:36:57.237Z,986.75
2019-02-10T10:37:57.241Z,986.83
2019-02-10T10:38:57.250Z,986.70
2019-02-10T10:39:57.254Z,986.75
2019-02-10T10:40:57.300Z,986.70
2019-02-10T10:41:57.164Z,986.81
2019-02-10T10:42:57.173Z,986.75
2019-02-10T10:43:57.177Z,986.80
2019-02-10T10:44:57.184Z,986.95
2019-02-10T10:45:57.239Z,986.78
2019-02-10T10:46:57.197Z,986.76
2019-02-10T10:47:57.108Z,986.78
2019-02-10T10:48:57.107Z,986.72
2019-02-10T10:49:57.115Z,986.73
2019-02-10T10:50:57.185Z,986.79
2019-02-10T10:51:57.125Z,986.75
2019-02-10T10:52:57.132Z,986.79
2019-02-10T10:53:57.047Z,986.77
2019-02-10T10:54:57.042Z,986.77
2019-02-10T10:55:57.129Z,986.75
2019-02-10T10:56:57.056Z,986.74
2019-02-10T10:57:57.063Z,986.71
2019-02-10T10:58:57.070Z,986.69
2019-02-10T10:59:57.006Z,986.74
2019-02-10T11:00:57.076Z,986.78
2019-02-10T11:01:56.986Z,986.83
2019-02-10T11:02:56.992Z,986.71
2019-02-10T11:03:56.998Z,986.80
2019-02-10T11:04:56.912Z,986.67
2019-02-10T11:05:57.013Z,986.69
2019-02-10T11:06:56.916Z,986.68
2019-02-10T11:07:56.927Z,986.64
2019-02-10T11:08:56.929Z,986.65
2019-02-10T11:09:56.932Z,986.70
2019-02-10T11:10:56.942Z,986.74
2019-02-10T11:11:56.848Z,986.68
2019-02-10T11:12:56.854Z,986.70
2019-02-10T11:13:56.861Z,986.71
2019-02-10T11:14:56.860Z,986.66
2019-02-10T11:15:57.305Z,986.65
2019-02-10T11:16:56.775Z,986.63
2019-02-10T11:17:56.780Z,986.68
2019-02-10T11:18:56.792Z,986.69
2019-02-10T11:19:56.791Z,986.68
2019-02-10T11:20:56.853Z,986.67
2019-02-10T11:21:56.812Z,986.56
2019-02-10T11:22:56.707Z,986.60
2019-02-10T11:23:56.714Z,986.71
2019-02-10T11:24:56.725Z,986.69
2019-02-10T11:25:56.797Z,986.76
2019-02-10T11:26:56.733Z,986.74
2019-02-10T11:27:56.746Z,986.69
2019-02-10T11:28:56.665Z,986.66
2019-02-10T11:29:56.650Z,986.71
2019-02-10T11:30:56.739Z,986.64
2019-02-10T11:31:56.667Z,986.66
2019-02-10T11:32:56.669Z,986.71
2019-02-10T11:33:56.675Z,986.61
2019-02-10T11:34:56.689Z,986.72
2019-02-10T11:35:56.693Z,986.67
2019-02-10T11:36:56.591Z,986.65
2019-02-10T11:37:56.600Z,986.73
2019-02-10T11:38:56.603Z,986.77
2019-02-10T11:39:56.611Z,986.69
2019-02-10T11:40:56.667Z,986.71
2019-02-10T11:41:56.519Z,986.57
2019-02-10T11:42:56.526Z,986.66
2019-02-10T11:43:56.534Z,986.68
2019-02-10T11:44:56.542Z,986.84
2019-02-10T11:45:56.580Z,986.63
2019-02-10T11:46:56.448Z,986.53
2019-02-10T11:47:56.463Z,986.65
2019-02-10T11:48:56.462Z,986.73
2019-02-10T11:49:56.469Z,986.63
2019-02-10T11:50:56.515Z,986.60
2019-02-10T11:51:56.395Z,986.60
2019-02-10T11:52:56.384Z,986.56
2019-02-10T11:53:56.421Z,986.55
2019-02-10T11:54:56.409Z,986.57
2019-02-10T11:55:56.404Z,986.53
2019-02-10T11:56:56.453Z,986.46
2019-02-10T11:57:56.316Z,986.56
2019-02-10T11:58:56.321Z,986.50
2019-02-10T11:59:56.329Z,986.52
2019-02-10T12:00:56.335Z,986.50
2019-02-10T12:01:56.447Z,986.56
2019-02-10T12:02:56.346Z,986.52
2019-02-10T12:03:56.250Z,986.59
2019-02-10T12:04:56.258Z,986.49
2019-02-10T12:05:56.264Z,986.56
2019-02-10T12:06:56.356Z,986.57
2019-02-10T12:07:56.275Z,986.63
2019-02-10T12:08:56.295Z,986.65
2019-02-10T12:09:56.190Z,986.60
2019-02-10T12:10:56.193Z,986.67
2019-02-10T12:11:56.300Z,986.55
2019-02-10T12:12:56.204Z,986.57
2019-02-10T12:13:56.214Z,986.50
2019-02-10T12:14:56.218Z,986.52
2019-02-10T12:15:56.123Z,986.53
2019-02-10T12:16:56.237Z,986.57
2019-02-10T12:17:56.134Z,986.54
2019-02-10T12:18:56.143Z,986.56
2019-02-10T12:19:56.146Z,986.56
2019-02-10T12:20:56.153Z,986.59
2019-02-10T12:21:56.163Z,986.55
2019-02-10T12:22:56.062Z,986.57
2019-02-10T12:23:56.080Z,986.62
2019-02-10T12:24:56.075Z,986.54
2019-02-10T12:25:56.082Z,986.50
2019-02-10T12:26:56.190Z,986.57
2019-02-10T12:27:55.995Z,986.60
2019-02-10T12:28:55.999Z,986.64
2019-02-10T12:29:56.011Z,986.54
2019-02-10T12:30:56.025Z,986.58
2019-02-10T12:31:56.067Z,986.52
2019-02-10T12:32:56.023Z,986.58
2019-02-10T12:33:55.927Z,986.49
2019-02-10T12:34:55.934Z,986.60
2019-02-10T12:35:58.343Z,986.62
2019-02-10T12:36:56.009Z,986.66
2019-02-10T12:37:55.956Z,986.63
2019-02-10T12:38:55.958Z,986.70
2019-02-10T12:39:59.825Z,986.69
2019-02-10T12:40:55.879Z,986.63
2019-02-10T12:41:55.956Z,986.67
2019-02-10T12:42:55.883Z,986.69
2019-02-10T12:43:55.890Z,986.66
2019-02-10T12:44:55.799Z,986.65
2019-02-10T12:45:55.799Z,986.63
2019-02-10T12:46:55.905Z,986.63
2019-02-10T12:47:55.816Z,986.69
2019-02-10T12:48:55.823Z,986.57
2019-02-10T12:49:55.824Z,986.67
2019-02-10T12:50:55.731Z,986.65
2019-02-10T12:51:55.841Z,986.64
2019-02-10T12:52:55.745Z,986.62
2019-02-10T12:53:55.770Z,986.71
2019-02-10T12:54:55.753Z,986.67
2019-02-10T12:55:55.769Z,986.74
2019-02-10T12:56:55.767Z,986.66
2019-02-10T12:57:55.671Z,986.75
2019-02-10T12:58:55.683Z,986.72
2019-02-10T12:59:55.682Z,986.76
2019-02-10T13:00:55.688Z,986.72
2019-02-10T13:01:55.765Z,986.80
2019-02-10T13:02:55.704Z,986.71
2019-02-10T13:03:55.616Z,986.76
2019-02-10T13:04:55.612Z,986.66
2019-02-10T13:05:55.621Z,986.76
2019-02-10T13:06:55.681Z,986.70
2019-02-10T13:07:55.635Z,986.75
2019-02-10T13:08:55.535Z,986.70
2019-02-10T13:09:55.547Z,986.75
2019-02-10T13:10:55.550Z,986.75
2019-02-10T13:11:58.393Z,986.79
2019-02-10T13:12:55.560Z,986.71
2019-02-10T13:13:55.571Z,986.81
2019-02-10T13:14:55.477Z,986.72
2019-02-10T13:15:55.627Z,986.69
2019-02-10T13:16:55.568Z,986.67
2019-02-10T13:17:55.494Z,986.70
2019-02-10T13:18:55.496Z,986.69
2019-02-10T13:19:55.515Z,986.64
2019-02-10T13:20:55.405Z,986.67
2019-02-10T13:21:55.415Z,986.67
2019-02-10T13:22:55.503Z,986.64
2019-02-10T13:23:55.426Z,986.63
2019-02-10T13:24:55.431Z,986.62
2019-02-10T13:25:55.442Z,986.65
2019-02-10T13:26:55.342Z,986.65
2019-02-10T13:27:55.491Z,986.61
2019-02-10T13:28:55.356Z,986.62
2019-02-10T13:29:55.369Z,986.66
2019-02-10T13:30:55.366Z,986.62
2019-02-10T13:31:55.377Z,986.64
2019-02-10T13:32:55.386Z,986.67
2019-02-10T13:33:55.283Z,986.62
2019-02-10T13:34:55.298Z,986.61
2019-02-10T13:35:55.295Z,986.67
2019-02-10T13:36:56.953Z,986.71
2019-02-10T13:37:55.348Z,986.70
2019-02-10T13:38:55.212Z,986.73
2019-02-10T13:39:55.219Z,986.70
2019-02-10T13:40:55.236Z,986.70
2019-02-10T13:41:55.235Z,986.69
2019-02-10T13:42:55.288Z,986.68
2019-02-10T13:43:55.244Z,986.69
2019-02-10T13:44:55.151Z,986.66
2019-02-10T13:45:55.156Z,986.65
2019-02-10T13:46:55.164Z,986.69
2019-02-10T13:47:55.235Z,986.68
2019-02-10T13:48:55.179Z,986.65
2019-02-10T13:49:55.081Z,986.65
2019-02-10T13:50:55.083Z,986.62
2019-02-10T13:51:55.089Z,986.69
2019-02-10T13:52:55.183Z,986.68
2019-02-10T13:53:55.102Z,986.69
2019-02-10T13:54:55.117Z,986.74
2019-02-10T13:55:55.018Z,986.71
2019-02-10T13:56:55.020Z,986.70
2019-02-10T13:57:55.143Z,986.74
2019-02-10T13:58:55.031Z,986.73
2019-02-10T13:59:55.037Z,986.76
2019-02-10T14:00:55.046Z,986.66
2019-02-10T14:01:54.956Z,986.68
2019-02-10T14:02:55.057Z,986.74
2019-02-10T14:03:54.962Z,986.79
2019-02-10T14:04:54.968Z,986.76
2019-02-10T14:05:54.973Z,986.83
2019-02-10T14:06:54.984Z,986.77
2019-02-10T14:07:55.029Z,986.77
2019-02-10T14:08:54.890Z,986.77
2019-02-10T14:09:54.908Z,986.83
2019-02-10T14:10:54.902Z,986.76
2019-02-10T14:11:54.911Z,986.81
2019-02-10T14:12:54.946Z,986.83
2019-02-10T14:13:54.921Z,986.76
2019-02-10T14:14:54.826Z,986.83
2019-02-10T14:15:54.833Z,986.87
2019-02-10T14:16:54.843Z,986.88
2019-02-10T14:17:54.844Z,986.90
2019-02-10T14:18:54.910Z,986.91
2019-02-10T14:19:54.775Z,986.91
2019-02-10T14:20:54.761Z,986.86
2019-02-10T14:21:56.164Z,986.89
2019-02-10T14:22:54.788Z,986.96
2019-02-10T14:23:54.853Z,986.98
2019-02-10T14:24:54.797Z,986.96
2019-02-10T14:25:54.694Z,986.97
2019-02-10T14:26:54.697Z,987.04
2019-02-10T14:27:54.709Z,987.10
2019-02-10T14:28:54.795Z,987.08
2019-02-10T14:29:54.719Z,987.11
2019-02-10T14:30:54.737Z,987.11
2019-02-10T14:31:54.636Z,987.09
2019-02-10T14:32:54.635Z,987.13
2019-02-10T14:33:54.749Z,987.14
2019-02-10T14:34:55.421Z,987.19
2019-02-10T14:35:54.656Z,987.32
2019-02-10T14:36:54.679Z,987.25
2019-02-10T14:37:54.573Z,987.23
2019-02-10T14:38:54.714Z,987.24
2019-02-10T14:39:54.593Z,987.28
2019-02-10T14:40:54.581Z,987.23
2019-02-10T14:41:54.588Z,987.31
2019-02-10T14:42:54.596Z,987.25
2019-02-10T14:43:54.614Z,987.22
2019-02-10T14:44:54.505Z,987.16
2019-02-10T14:45:54.510Z,987.05
2019-02-10T14:46:54.521Z,986.89
2019-02-10T14:47:54.531Z,987.37
2019-02-10T14:48:54.578Z,987.09
2019-02-10T14:49:54.432Z,987.08
2019-02-10T14:50:54.442Z,987.02
2019-02-10T14:51:54.445Z,986.92
2019-02-10T14:52:54.465Z,986.95
2019-02-10T14:53:54.458Z,986.81
2019-02-10T14:54:54.512Z,986.91
2019-02-10T14:55:54.369Z,986.99
2019-02-10T14:56:54.376Z,986.94
2019-02-10T14:57:54.383Z,986.88
2019-02-10T14:58:54.398Z,986.92
2019-02-10T14:59:54.456Z,986.93
2019-02-10T15:00:54.401Z,986.90
2019-02-10T15:01:54.309Z,986.95
2019-02-10T15:02:54.312Z,987.05
2019-02-10T15:03:54.317Z,987.10
2019-02-10T15:04:54.397Z,987.11
2019-02-10T15:05:54.353Z,987.14
2019-02-10T15:06:54.335Z,987.16
2019-02-10T15:07:54.238Z,987.24
2019-02-10T15:08:54.248Z,987.23
2019-02-10T15:09:54.343Z,987.23
2019-02-10T15:10:54.259Z,987.24
2019-02-10T15:11:54.269Z,987.38
2019-02-10T15:12:54.271Z,987.29
2019-02-10T15:13:54.188Z,987.37
2019-02-10T15:14:54.288Z,987.50
2019-02-10T15:15:54.189Z,987.31
2019-02-10T15:16:54.196Z,987.41
2019-02-10T15:17:54.217Z,987.39
2019-02-10T15:18:54.209Z,987.45
2019-02-10T15:19:54.218Z,987.39
2019-02-10T15:20:54.119Z,987.47
2019-02-10T15:21:54.130Z,987.52
2019-02-10T15:22:54.131Z,987.40
2019-02-10T15:23:54.137Z,987.52
2019-02-10T15:24:54.176Z,987.55
2019-02-10T15:25:54.057Z,987.52
2019-02-10T15:26:54.053Z,987.54
2019-02-10T15:27:54.142Z,987.48
2019-02-10T15:28:54.065Z,987.61
2019-02-10T15:29:54.123Z,987.67
2019-02-10T15:30:54.079Z,987.56
2019-02-10T15:31:53.992Z,987.67
2019-02-10T15:32:53.988Z,987.62
2019-02-10T15:33:53.999Z,987.66
2019-02-10T15:34:54.068Z,987.79
2019-02-10T15:35:54.007Z,987.78
2019-02-10T15:36:54.017Z,987.75
2019-02-10T15:37:53.916Z,987.69
2019-02-10T15:38:53.930Z,987.64
2019-02-10T15:39:54.030Z,987.76
2019-02-10T15:40:53.935Z,987.79
2019-02-10T15:41:53.943Z,987.80
2019-02-10T15:42:53.952Z,987.75
2019-02-10T15:43:53.851Z,987.72
2019-02-10T15:44:53.861Z,987.77
2019-02-10T15:45:53.946Z,987.69
2019-02-10T15:46:53.880Z,987.78
2019-02-10T15:47:53.880Z,987.76
2019-02-10T15:48:53.884Z,987.73
2019-02-10T15:49:53.788Z,987.81
2019-02-10T15:50:53.896Z,987.80
2019-02-10T15:51:53.803Z,987.82
2019-02-10T15:52:53.894Z,987.80
2019-02-10T15:53:53.858Z,987.79
2019-02-10T15:54:53.829Z,987.80
2019-02-10T15:55:53.826Z,987.90
2019-02-10T15:56:53.739Z,987.84
2019-02-10T15:57:53.742Z,987.83
2019-02-10T15:58:53.744Z,987.84
2019-02-10T15:59:53.749Z,987.89
2019-02-10T16:00:53.844Z,987.89
2019-02-10T16:01:53.658Z,987.88
2019-02-10T16:02:53.666Z,987.92
2019-02-10T16:03:53.679Z,987.95
2019-02-10T16:04:53.679Z,987.91
2019-02-10T16:05:53.796Z,987.92
2019-02-10T16:06:53.692Z,987.92
2019-02-10T16:07:53.599Z,988.03
2019-02-10T16:08:53.601Z,987.95
2019-02-10T16:09:53.617Z,988.02
2019-02-10T16:10:58.153Z,988.03
2019-02-10T16:11:53.620Z,988.03
2019-02-10T16:12:53.628Z,988.07
2019-02-10T16:13:53.530Z,988.09
2019-02-10T16:14:53.540Z,988.11
2019-02-10T16:15:53.687Z,988.13
2019-02-10T16:16:53.552Z,988.16
2019-02-10T16:17:53.565Z,988.11
2019-02-10T16:18:53.562Z,988.17
2019-02-10T16:19:53.466Z,988.22
2019-02-10T16:20:53.576Z,988.28
2019-02-10T16:21:53.478Z,988.30
2019-02-10T16:22:53.484Z,988.28
2019-02-10T16:23:53.499Z,988.31
2019-02-10T16:24:53.497Z,988.37
2019-02-10T16:25:53.504Z,988.32
2019-02-10T16:26:53.406Z,988.33
2019-02-10T16:27:53.414Z,988.41
2019-02-10T16:28:53.421Z,988.34
2019-02-10T16:29:53.427Z,988.36
2019-02-10T16:30:53.531Z,988.19
2019-02-10T16:31:53.337Z,988.39
2019-02-10T16:32:53.344Z,988.39
2019-02-10T16:33:53.352Z,988.42
2019-02-10T16:34:53.357Z,988.39
2019-02-10T16:35:53.365Z,988.46
2019-02-10T16:36:53.447Z,988.40
2019-02-10T16:37:53.274Z,988.43
2019-02-10T16:38:53.292Z,988.51
2019-02-10T16:39:53.286Z,988.40
2019-02-10T16:40:53.291Z,988.48
2019-02-10T16:41:53.398Z,988.46
2019-02-10T16:42:53.323Z,988.50
2019-02-10T16:43:53.210Z,988.53
2019-02-10T16:44:53.215Z,988.51
2019-02-10T16:45:53.233Z,988.53
2019-02-10T16:46:53.334Z,988.58
2019-02-10T16:47:53.234Z,988.60
2019-02-10T16:48:53.241Z,988.68
2019-02-10T16:49:53.147Z,988.66
2019-02-10T16:50:53.159Z,988.65
2019-02-10T16:51:53.277Z,988.75
2019-02-10T16:52:53.162Z,988.70
2019-02-10T16:53:53.279Z,988.72
2019-02-10T16:54:53.177Z,988.73
2019-02-10T16:55:53.081Z,988.81
2019-02-10T16:56:53.226Z,988.79
2019-02-10T16:57:54.558Z,988.70
2019-02-10T16:58:53.098Z,988.81
2019-02-10T16:59:53.104Z,988.77
2019-02-10T17:00:53.121Z,988.95
2019-02-10T17:01:53.127Z,988.89
2019-02-10T17:02:53.023Z,988.90
2019-02-10T17:03:53.027Z,988.93
2019-02-10T17:04:53.137Z,988.93
2019-02-10T17:05:53.040Z,988.87
2019-02-10T17:06:53.149Z,988.79
2019-02-10T17:07:53.054Z,988.87
2019-02-10T17:08:53.002Z,988.90
2019-02-10T17:09:52.968Z,988.87
2019-02-10T17:10:52.968Z,988.86
2019-02-10T17:11:53.085Z,988.90
2019-02-10T17:12:52.982Z,988.86
2019-02-10T17:13:52.992Z,988.98
2019-02-10T17:14:52.903Z,989.03
2019-02-10T17:15:52.898Z,989.09
2019-02-10T17:16:53.011Z,989.05
2019-02-10T17:17:52.915Z,989.18
2019-02-10T17:18:52.920Z,989.19
2019-02-10T17:19:52.926Z,989.19
2019-02-10T17:20:52.833Z,989.08
2019-02-10T17:21:52.937Z,989.18
2019-02-10T17:22:52.841Z,989.19
2019-02-10T17:23:52.851Z,989.20
2019-02-10T17:24:52.859Z,989.19
2019-02-10T17:25:52.764Z,989.29
2019-02-10T17:26:52.885Z,989.22
2019-02-10T17:27:52.772Z,989.36
2019-02-10T17:28:52.775Z,989.39
2019-02-10T17:29:52.785Z,989.33
2019-02-10T17:30:52.803Z,989.35
2019-02-10T17:31:52.842Z,989.40
2019-02-10T17:32:52.706Z,989.41
2019-02-10T17:33:52.706Z,989.39
2019-02-10T17:34:52.757Z,989.38
2019-02-10T17:35:52.719Z,989.40
2019-02-10T17:36:52.779Z,989.42
2019-02-10T17:37:52.633Z,989.53
2019-02-10T17:38:52.648Z,989.43
2019-02-10T17:39:52.644Z,989.48
2019-02-10T17:40:52.766Z,989.43
2019-02-10T17:41:52.726Z,989.53
2019-02-10T17:42:52.666Z,989.43
2019-02-10T17:43:52.672Z,989.50
2019-02-10T17:44:52.570Z,989.60
2019-02-10T17:45:52.578Z,989.58
2019-02-10T17:46:52.671Z,989.69
2019-02-10T17:47:52.592Z,989.64
2019-02-10T17:48:52.633Z,989.64
2019-02-10T17:49:52.601Z,989.72
2019-02-10T17:50:52.626Z,989.69
2019-02-10T17:51:52.611Z,989.74
2019-02-10T17:52:52.529Z,989.73
2019-02-10T17:53:52.526Z,989.74
2019-02-10T17:54:52.530Z,989.74
2019-02-10T17:55:52.536Z,989.71
2019-02-10T17:56:52.547Z,989.73
2019-02-10T17:57:52.449Z,989.82
2019-02-10T17:58:52.455Z,989.79
2019-02-10T17:59:52.461Z,989.81
2019-02-10T18:00:52.478Z,989.85
2019-02-10T18:01:52.501Z,989.81
2019-02-10T18:02:52.387Z,989.85
2019-02-10T18:03:52.385Z,989.97
2019-02-10T18:04:52.393Z,990.10
2019-02-10T18:05:52.399Z,990.08
2019-02-10T18:06:52.408Z,990.10
2019-02-10T18:07:52.440Z,990.07
2019-02-10T18:08:52.326Z,990.03
2019-02-10T18:09:52.322Z,990.15
2019-02-10T18:10:52.329Z,990.12
2019-02-10T18:11:52.337Z,990.24
2019-02-10T18:12:52.444Z,990.17
2019-02-10T18:13:52.352Z,990.23
2019-02-10T18:14:52.250Z,990.34
2019-02-10T18:15:52.266Z,990.30
2019-02-10T18:16:52.265Z,990.28
2019-02-10T18:17:52.327Z,990.34
2019-02-10T18:18:52.273Z,990.35
2019-02-10T18:19:52.284Z,990.20
2019-02-10T18:20:52.184Z,990.36
2019-02-10T18:21:52.212Z,990.44
2019-02-10T18:22:52.305Z,990.34
2019-02-10T18:23:52.205Z,990.43
2019-02-10T18:24:52.209Z,990.48
2019-02-10T18:25:52.218Z,990.39
2019-02-10T18:26:52.118Z,990.33
2019-02-10T18:27:52.229Z,990.45
2019-02-10T18:28:52.144Z,990.42
2019-02-10T18:29:52.138Z,990.52
2019-02-10T18:30:52.146Z,990.48
2019-02-10T18:31:52.158Z,990.43
2019-02-10T18:32:52.260Z,990.60
2019-02-10T18:33:52.083Z,990.63
2019-02-10T18:34:52.069Z,990.59
2019-02-10T18:35:52.095Z,990.64
2019-02-10T18:36:52.083Z,990.64
2019-02-10T18:37:52.130Z,990.69
2019-02-10T18:38:52.109Z,990.68
2019-02-10T18:39:51.998Z,990.78
2019-02-10T18:40:52.002Z,990.82
2019-02-10T18:41:52.009Z,990.67
2019-02-10T18:42:52.056Z,990.75
2019-02-10T18:43:52.022Z,990.91
2019-02-10T18:44:51.957Z,990.77
2019-02-10T18:45:52.031Z,990.82
2019-02-10T18:46:51.955Z,990.95
2019-02-10T18:47:52.004Z,990.93
2019-02-10T18:48:51.951Z,990.85
2019-02-10T18:49:51.958Z,990.92
2019-02-10T18:50:51.882Z,990.96
2019-02-10T18:51:51.995Z,991.00
2019-02-10T18:52:51.946Z,990.89
2019-02-10T18:53:51.901Z,991.09
2019-02-10T18:54:52.464Z,990.86